Time;durP1;ratioP1;P1;durP2;ratioP2;P2;SDS_P1;SDS_P2;PMS_P1;PMS_P2;Temp;Humidity;BMP_temperature;BMP_pressure;BME280_temperature;BME280_humidity;BME280_pressure;Samples;Min_cycle;Max_cycle;Signal;HPM_P1;HPM_P2
2023/01/13 04:01:04;;;;;;;1.83;0.80;;;10.10;80.10;;;;;;5919293;23;20492;-67
2023/01/13 04:03:38;;;;;;;2.30;1.00;;;10.10;80.40;;;;;;4993758;28;20433;-67
2023/01/13 04:06:14;;;;;;;2.07;1.00;;;10.10;80.30;;;;;;4993457;28;20918;-67
2023/01/13 04:08:48;;;;;;;1.60;0.90;;;10.00;80.70;;;;;;4993723;28;20425;-67
2023/01/13 04:11:19;;;;;;;1.97;0.93;;;10.00;80.90;;;;;;4993555;28;20468;-66
2023/01/13 04:13:47;;;;;;;1.60;0.70;;;10.10;80.40;;;;;;4993656;28;20480;-67
2023/01/13 04:16:16;;;;;;;1.70;0.83;;;10.10;80.20;;;;;;4994129;28;20485;-66
2023/01/13 04:18:43;;;;;;;1.60;0.80;;;10.10;80.30;;;;;;4993264;28;21008;-67
2023/01/13 04:21:09;;;;;;;1.50;0.73;;;10.10;80.30;;;;;;4993132;28;20982;-67
2023/01/13 04:23:36;;;;;;;1.50;0.73;;;10.10;80.00;;;;;;4993526;28;20445;-68
2023/01/13 04:26:03;;;;;;;1.90;0.93;;;10.10;80.00;;;;;;4993480;28;20445;-67
2023/01/13 04:28:30;;;;;;;1.80;0.90;;;10.00;80.10;;;;;;4993428;28;20445;-66
2023/01/13 04:30:56;;;;;;;1.67;0.70;;;10.00;80.30;;;;;;4993342;28;20465;-67
2023/01/13 04:33:24;;;;;;;2.50;1.30;;;10.10;80.00;;;;;;4993834;28;20480;-67
2023/01/13 04:35:52;;;;;;;1.50;0.90;;;10.10;79.80;;;;;;4993413;28;20873;-67
2023/01/13 04:38:20;;;;;;;1.80;0.70;;;10.10;79.60;;;;;;4993426;28;20449;-67
2023/01/13 04:40:47;;;;;;;2.27;0.83;;;10.10;79.90;;;;;;4993275;28;20469;-68
2023/01/13 04:43:15;;;;;;;1.90;0.80;;;10.10;79.70;;;;;;4995894;28;20499;-66
2023/01/13 04:45:42;;;;;;;2.00;0.80;;;10.20;79.70;;;;;;4996814;28;20532;-67
2023/01/13 04:48:09;;;;;;;1.60;0.70;;;10.20;79.30;;;;;;4996811;28;20449;-68
2023/01/13 04:50:37;;;;;;;2.03;0.80;;;10.20;79.30;;;;;;4996387;28;20946;-67
2023/01/13 04:53:04;;;;;;;1.50;0.70;;;10.20;79.50;;;;;;4996628;28;20481;-67
2023/01/13 04:55:31;;;;;;;2.63;1.23;;;10.20;79.50;;;;;;4996700;28;20450;-68
2023/01/13 04:58:02;;;;;;;1.60;0.70;;;10.20;79.50;;;;;;4996708;28;20480;-68
2023/01/13 05:00:29;;;;;;;1.40;0.60;;;10.20;79.20;;;;;;4996538;28;20524;-67
2023/01/13 05:02:55;;;;;;;1.50;0.67;;;10.20;79.00;;;;;;4996167;28;20842;-68
2023/01/13 05:05:22;;;;;;;1.70;0.80;;;10.30;79.30;;;;;;4996513;28;20450;-68
2023/01/13 05:07:50;;;;;;;1.50;0.80;;;10.20;79.20;;;;;;4996514;28;20473;-67
2023/01/13 05:10:17;;;;;;;1.80;0.90;;;10.10;79.40;;;;;;4996403;28;20445;-67
2023/01/13 05:18:13;;;;;;;1.57;0.70;;;10.10;79.70;;;;;;4996365;28;20471;-67
2023/01/13 05:20:39;;;;;;;3.00;0.80;;;10.20;79.50;;;;;;4996179;28;20449;-67
2023/01/13 05:25:52;;;;;;;1.70;0.70;;;10.20;79.40;;;;;;4996197;28;20906;-67
2023/01/13 05:28:18;;;;;;;1.60;0.70;;;10.30;79.10;;;;;;4995770;28;21009;-67
2023/01/13 05:30:48;;;;;;;2.03;0.70;;;10.30;78.90;;;;;;4995947;28;20504;-68
2023/01/13 05:33:16;;;;;;;1.77;0.83;;;10.30;78.80;;;;;;4995950;28;20488;-68
2023/01/13 05:35:45;;;;;;;1.50;0.60;;;10.40;78.70;;;;;;4995818;28;20867;-68
2023/01/13 05:38:13;;;;;;;1.60;0.60;;;10.40;78.70;;;;;;4995920;28;20461;-67
2023/01/13 05:43:26;;;;;;;1.70;0.70;;;10.30;78.80;;;;;;4996084;28;20484;-67
2023/01/13 05:45:57;;;;;;;2.07;0.70;;;10.30;78.70;;;;;;4995405;28;20867;-68
2023/01/13 05:48:25;;;;;;;1.40;0.60;;;10.30;78.80;;;;;;4995665;28;20457;-67
2023/01/13 05:50:53;;;;;;;2.00;0.90;;;10.40;78.90;;;;;;4995558;28;20469;-68
2023/01/13 05:53:21;;;;;;;2.00;0.90;;;10.50;78.60;;;;;;4995198;28;20857;-67
2023/01/13 05:55:49;;;;;;;1.60;0.70;;;10.40;78.30;;;;;;4995556;28;20448;-68
2023/01/13 05:58:17;;;;;;;1.63;0.80;;;10.40;78.70;;;;;;4995185;28;20899;-66
2023/01/13 06:00:44;;;;;;;2.37;0.87;;;10.40;78.80;;;;;;4995245;28;20888;-67
2023/01/13 06:03:11;;;;;;;1.70;0.70;;;10.50;78.60;;;;;;4995168;28;20899;-67
2023/01/13 06:05:38;;;;;;;1.43;0.70;;;10.30;78.70;;;;;;4995378;28;20454;-68
2023/01/13 06:08:06;;;;;;;1.40;0.70;;;10.40;79.00;;;;;;4995307;28;20448;-68
2023/01/13 06:10:35;;;;;;;2.17;0.80;;;10.40;78.70;;;;;;4995232;28;20500;-67
2023/01/13 06:13:02;;;;;;;1.80;0.70;;;10.40;79.00;;;;;;4994905;28;20579;-67
2023/01/13 06:15:29;;;;;;;1.40;0.70;;;10.30;79.10;;;;;;4995172;28;20456;-67
2023/01/13 06:17:56;;;;;;;1.40;0.60;;;10.30;79.20;;;;;;4995129;28;20445;-68
2023/01/13 06:20:23;;;;;;;1.50;0.80;;;10.30;79.50;;;;;;4994997;28;20828;-67
2023/01/13 06:22:52;;;;;;;1.87;0.87;;;10.40;79.30;;;;;;4994767;28;20855;-68
2023/01/13 06:25:25;;;;;;;1.60;0.90;;;10.30;79.30;;;;;;4994952;28;20449;-67
2023/01/13 06:27:55;;;;;;;1.50;0.70;;;10.30;79.40;;;;;;4995085;28;20487;-67
2023/01/13 06:30:22;;;;;;;1.40;0.60;;;10.30;79.30;;;;;;4994568;28;20464;-67
2023/01/13 06:32:53;;;;;;;1.83;0.70;;;10.30;79.60;;;;;;4994826;28;20481;-68
2023/01/13 06:35:24;;;;;;;1.50;0.60;;;10.40;79.40;;;;;;4994833;28;20429;-67
2023/01/13 06:37:53;;;;;;;1.40;0.60;;;10.40;79.50;;;;;;4995637;28;20441;-67
2023/01/13 06:40:20;;;;;;;1.60;0.70;;;10.40;79.40;;;;;;4994891;28;20477;-67
2023/01/13 06:45:33;;;;;;;1.80;0.77;;;10.50;79.10;;;;;;4994668;28;20416;-67
2023/01/13 06:48:00;;;;;;;1.60;0.70;;;10.60;80.90;;;;;;4994654;28;20850;-67
2023/01/13 06:50:27;;;;;;;1.40;0.70;;;10.80;80.30;;;;;;4994444;28;20449;-68
2023/01/13 06:52:54;;;;;;;1.40;0.70;;;10.90;79.80;;;;;;4994468;28;20485;-68
2023/01/13 06:55:20;;;;;;;1.50;0.70;;;10.80;78.20;;;;;;4994452;28;20445;-68
2023/01/13 06:57:49;;;;;;;1.50;0.63;;;10.80;78.40;;;;;;4994477;28;20449;-68
2023/01/13 07:00:17;;;;;;;1.93;0.80;;;10.70;78.40;;;;;;4994337;28;20459;-68
2023/01/13 07:02:45;;;;;;;1.40;0.60;;;10.60;79.30;;;;;;4993826;28;20489;-67
2023/01/13 07:05:12;;;;;;;1.50;0.70;;;10.50;79.50;;;;;;4993598;28;20449;-67
2023/01/13 07:07:39;;;;;;;1.60;0.60;;;10.50;79.60;;;;;;4994462;28;20453;-67
2023/01/13 07:10:08;;;;;;;1.63;0.70;;;10.50;79.40;;;;;;4994046;28;20946;-67
2023/01/13 07:15:17;;;;;;;1.40;0.60;;;10.50;79.50;;;;;;4994051;28;20481;-67
2023/01/13 07:15:22;;;;;;;1.40;0.60;;;10.40;79.50;;;;;;4993710;28;20430;-67
2023/01/13 07:17:50;;;;;;;1.50;0.70;;;10.40;79.70;;;;;;4994157;28;20807;-67
2023/01/13 07:20:17;;;;;;;1.97;0.80;;;10.30;79.70;;;;;;4994023;28;20268;-67
2023/01/13 07:22:44;;;;;;;1.70;0.70;;;10.40;79.90;;;;;;4993955;28;20469;-67
2023/01/13 07:25:12;;;;;;;2.03;0.60;;;10.40;79.60;;;;;;4993682;28;21071;-67
2023/01/13 07:27:38;;;;;;;1.40;0.60;;;10.40;79.60;;;;;;4993935;28;20449;-67
2023/01/13 07:30:06;;;;;;;1.77;0.80;;;10.30;79.70;;;;;;4993873;28;20548;-67
2023/01/13 07:32:33;;;;;;;3.10;0.70;;;10.30;79.90;;;;;;4993725;28;20485;-67
2023/01/13 07:35:04;;;;;;;1.80;0.97;;;10.20;80.00;;;;;;4993841;28;20797;-67
2023/01/13 07:37:32;;;;;;;2.00;0.70;;;10.20;80.20;;;;;;4993635;28;20878;-67
2023/01/13 07:39:59;;;;;;;1.40;0.60;;;10.20;80.20;;;;;;4993494;28;20449;-67
2023/01/13 07:45:10;;;;;;;1.50;0.60;;;10.30;79.90;;;;;;4993956;28;20401;-67
2023/01/13 07:47:37;;;;;;;1.50;0.80;;;10.40;79.70;;;;;;4993605;28;20445;-66
2023/01/13 07:50:06;;;;;;;1.40;0.60;;;10.40;79.70;;;;;;4993504;28;20454;-67
2023/01/13 07:52:33;;;;;;;1.40;0.60;;;10.50;79.40;;;;;;4993380;28;21008;-67
2023/01/13 07:55:00;;;;;;;1.40;0.60;;;10.50;79.50;;;;;;4993701;28;20462;-67
2023/01/13 07:57:26;;;;;;;2.00;0.70;;;10.50;79.30;;;;;;4993709;28;20453;-67
2023/01/13 07:59:53;;;;;;;1.40;0.60;;;10.50;79.50;;;;;;4993682;28;20449;-67
2023/01/13 08:02:20;;;;;;;1.60;0.63;;;10.50;79.60;;;;;;4993349;28;20477;-67
2023/01/13 08:04:47;;;;;;;1.80;0.70;;;10.60;79.60;;;;;;4993610;28;20457;-67
2023/01/13 08:07:14;;;;;;;1.40;0.60;;;10.50;79.50;;;;;;4993703;28;20503;-68
2023/01/13 08:09:41;;;;;;;1.70;1.00;;;10.60;79.30;;;;;;4993703;28;20468;-67
2023/01/13 08:14:52;;;;;;;1.40;0.70;;;10.70;79.40;;;;;;4993956;28;20405;-68
2023/01/13 08:17:19;;;;;;;2.03;0.70;;;10.60;79.30;;;;;;4996672;28;20441;-68
2023/01/13 08:19:46;;;;;;;1.43;0.67;;;10.60;79.60;;;;;;4998214;28;20535;-68
2023/01/13 08:22:13;;;;;;;1.40;0.60;;;10.60;79.60;;;;;;4997554;28;20500;-68
2023/01/13 08:24:41;;;;;;;1.37;0.60;;;10.70;79.90;;;;;;4997702;28;20503;-68
2023/01/13 08:27:07;;;;;;;1.40;0.60;;;10.80;79.80;;;;;;4997439;28;20449;-68
2023/01/13 08:29:34;;;;;;;1.53;0.73;;;10.80;79.70;;;;;;4997445;28;20441;-68
2023/01/13 08:32:01;;;;;;;1.47;0.63;;;10.70;80.60;;;;;;4997444;28;20531;-67
2023/01/13 08:34:27;;;;;;;2.03;0.80;;;10.70;81.80;;;;;;4997224;28;20528;-66
2023/01/13 08:36:54;;;;;;;1.40;0.60;;;10.70;82.60;;;;;;4997352;28;20453;-68
2023/01/13 08:39:21;;;;;;;1.97;0.60;;;10.60;84.70;;;;;;4997107;28;20507;-67
2023/01/13 08:41:54;;;;;;;1.40;0.70;;;10.50;85.30;;;;;;4997068;28;20477;-67
2023/01/13 08:44:21;;;;;;;1.40;0.70;;;10.60;85.90;;;;;;4997103;28;20417;-67
2023/01/13 08:46:48;;;;;;;1.50;0.60;;;10.50;85.70;;;;;;4996665;28;20456;-67
2023/01/13 08:49:16;;;;;;;1.40;0.70;;;10.30;86.40;;;;;;4997086;28;20448;-67
2023/01/13 08:51:42;;;;;;;1.50;0.70;;;10.20;87.20;;;;;;4996901;28;20883;-67
2023/01/13 08:54:09;;;;;;;1.47;0.60;;;10.30;87.10;;;;;;4996883;28;20912;-67
2023/01/13 08:56:36;;;;;;;1.70;0.70;;;10.30;87.40;;;;;;4996957;28;20495;-68
2023/01/13 08:59:04;;;;;;;1.40;0.70;;;10.30;87.70;;;;;;4996886;28;20453;-68
2023/01/13 09:01:30;;;;;;;1.50;0.80;;;10.30;87.10;;;;;;4996367;28;20836;-67
2023/01/13 09:03:57;;;;;;;2.03;0.70;;;10.40;87.40;;;;;;4996591;28;20438;-67
2023/01/13 09:06:24;;;;;;;2.10;0.83;;;10.40;87.40;;;;;;4996685;28;20458;-67
2023/01/13 09:08:50;;;;;;;1.40;0.63;;;10.30;87.20;;;;;;4996629;28;20504;-67
2023/01/13 09:14:08;;;;;;;1.50;0.70;;;10.40;87.20;;;;;;4971320;28;20488;-67
2023/01/13 09:16:34;;;;;;;2.17;0.80;;;10.40;87.70;;;;;;4996338;28;20454;-67
2023/01/13 09:19:01;;;;;;;1.50;0.60;;;10.40;87.70;;;;;;4996413;28;20441;-67
2023/01/13 09:21:28;;;;;;;1.70;0.70;;;10.40;87.90;;;;;;4996264;28;20523;-67
2023/01/13 09:23:54;;;;;;;1.50;0.80;;;10.60;87.90;;;;;;4996339;28;20480;-67
2023/01/13 09:26:21;;;;;;;1.40;0.70;;;10.50;86.90;;;;;;4996130;28;20553;-67
2023/01/13 09:28:48;;;;;;;1.60;0.73;;;10.40;87.20;;;;;;4995183;28;20453;-67
2023/01/13 09:31:16;;;;;;;1.43;0.67;;;10.30;87.30;;;;;;4995682;28;20975;-67
2023/01/13 09:36:27;;;;;;;1.50;0.60;;;10.10;85.50;;;;;;4996019;28;20779;-67
2023/01/13 09:38:53;;;;;;;1.40;0.60;;;10.00;85.50;;;;;;4995878;28;20507;-67
2023/01/13 09:44:25;;;;;;;1.60;0.70;;;9.90;84.80;;;;;;4935622;29;20490;-68
2023/01/13 09:46:58;;;;;;;1.67;0.60;;;9.80;85.20;;;;;;4935815;29;20456;-67
2023/01/13 09:49:35;;;;;;;1.50;0.70;;;9.80;84.80;;;;;;4966176;28;20449;-68
2023/01/13 09:52:06;;;;;;;2.00;0.70;;;9.80;84.80;;;;;;4995707;28;20457;-67
2023/01/13 09:54:41;;;;;;;1.40;0.60;;;9.80;84.70;;;;;;4995529;28;20473;-67
2023/01/13 09:57:11;;;;;;;1.63;0.70;;;9.80;84.70;;;;;;4995514;28;20437;-68
2023/01/13 09:59:38;;;;;;;1.90;0.70;;;9.90;84.90;;;;;;4995491;28;20453;-67
2023/01/13 10:02:26;;;;;;;1.97;0.70;;;9.90;84.10;;;;;;4994951;28;20489;-67
2023/01/13 10:05:06;;;;;;;1.50;0.70;;;9.90;84.70;;;;;;4995419;28;20491;-67
2023/01/13 10:07:36;;;;;;;1.40;0.60;;;9.90;84.90;;;;;;4995380;28;20437;-66
2023/01/13 10:10:05;;;;;;;1.60;0.70;;;9.90;84.90;;;;;;4995338;28;20496;-67
2023/01/13 10:15:19;;;;;;;1.40;0.60;;;9.80;84.90;;;;;;5018918;23;20548;-75
2023/01/13 10:17:54;;;;;;;1.40;0.60;;;9.90;84.70;;;;;;4995367;28;20438;-74
2023/01/13 10:20:26;;;;;;;1.97;0.90;;;9.90;85.00;;;;;;4995083;28;20437;-74
2023/01/13 10:23:03;;;;;;;1.60;0.70;;;9.80;85.20;;;;;;4995095;28;20434;-74
2023/01/13 10:25:42;;;;;;;2.10;0.80;;;10.00;85.60;;;;;;4995157;28;20498;-73
2023/01/13 10:28:11;;;;;;;1.67;0.90;;;10.00;84.20;;;;;;4995137;28;20496;-74
2023/01/13 10:30:40;;;;;;;1.40;0.70;;;10.40;84.70;;;;;;4994773;28;20457;-73
2023/01/13 10:33:16;;;;;;;1.70;0.60;;;11.10;83.50;;;;;;4994747;28;20452;-73
2023/01/13 10:35:59;;;;;;;1.50;0.70;;;11.80;79.30;;;;;;4994459;28;21009;-74
2023/01/13 10:38:29;;;;;;;1.50;0.63;;;12.10;77.30;;;;;;4994400;28;20981;-74
2023/01/13 10:40:58;;;;;;;1.50;0.60;;;12.30;77.20;;;;;;4993680;28;20449;-74
2023/01/13 10:43:25;;;;;;;1.40;0.60;;;12.20;76.30;;;;;;4994951;28;20449;-74
2023/01/13 10:45:57;;;;;;;2.93;0.80;;;11.70;77.00;;;;;;4994756;28;20523;-73
2023/01/13 10:48:33;;;;;;;1.50;0.80;;;11.30;77.30;;;;;;4994813;28;20465;-75
2023/01/13 10:51:11;;;;;;;1.73;0.80;;;11.10;78.20;;;;;;4994650;28;20519;-74
2023/01/13 10:53:46;;;;;;;1.50;0.70;;;10.80;80.00;;;;;;4995083;28;20532;-75
2023/01/13 10:56:17;;;;;;;1.37;0.60;;;10.60;80.60;;;;;;4994486;28;20515;-74
2023/01/13 10:58:44;;;;;;;2.20;1.13;;;10.40;81.50;;;;;;4994245;28;20907;-74
2023/01/13 11:01:20;;;;;;;1.80;0.73;;;10.20;82.90;;;;;;4994423;28;20449;-74
2023/01/13 11:03:48;;;;;;;1.50;0.67;;;10.10;84.00;;;;;;4994115;28;20903;-74
2023/01/13 11:06:23;;;;;;;1.80;0.70;;;10.00;84.30;;;;;;4994204;28;20469;-74
2023/01/13 11:08:54;;;;;;;1.40;0.60;;;9.90;83.90;;;;;;4994286;28;20515;-75
2023/01/13 11:11:42;;;;;;;1.90;0.70;;;9.80;84.00;;;;;;4994218;28;20444;-75
2023/01/13 11:14:35;;;;;;;1.83;0.80;;;9.70;83.90;;;;;;4994075;28;20544;-75
2023/01/13 11:17:08;;;;;;;1.90;0.70;;;9.60;84.00;;;;;;4993674;28;20481;-77
2023/01/13 11:19:41;;;;;;;1.90;1.00;;;9.40;83.60;;;;;;4994329;28;20434;-75
2023/01/13 11:22:14;;;;;;;1.50;0.60;;;9.50;83.70;;;;;;4994096;28;20448;-74
2023/01/13 11:24:45;;;;;;;1.50;0.70;;;9.50;84.00;;;;;;4993710;28;20855;-75
2023/01/13 11:27:16;;;;;;;1.40;0.60;;;9.60;84.00;;;;;;4994110;28;20433;-75
2023/01/13 11:29:57;;;;;;;1.40;0.60;;;9.50;83.70;;;;;;4994136;28;20434;-74
2023/01/13 11:32:24;;;;;;;1.50;0.60;;;9.50;84.40;;;;;;4994159;28;20437;-76
2023/01/13 11:34:56;;;;;;;1.40;0.60;;;9.50;84.40;;;;;;4994047;28;20481;-75
2023/01/13 11:37:26;;;;;;;1.50;0.67;;;9.30;83.40;;;;;;4994430;28;20441;-74
2023/01/13 11:40:00;;;;;;;1.50;0.60;;;9.20;84.50;;;;;;4993946;28;20449;-75
2023/01/13 11:42:35;;;;;;;1.40;0.67;;;9.20;84.20;;;;;;4993627;28;20910;-74
2023/01/13 11:45:10;;;;;;;1.40;0.60;;;9.10;84.40;;;;;;4993772;28;20433;-74
2023/01/13 11:47:38;;;;;;;2.40;0.80;;;8.90;83.10;;;;;;4993844;28;20445;-74
2023/01/13 11:50:16;;;;;;;2.13;1.00;;;8.80;84.40;;;;;;4993458;28;20846;-74
2023/01/13 11:53:07;;;;;;;2.03;0.80;;;8.80;84.70;;;;;;4997569;28;20440;-74
2023/01/13 11:55:46;;;;;;;1.60;0.70;;;8.90;84.50;;;;;;4997784;28;20572;-75
2023/01/13 11:58:34;;;;;;;2.00;0.80;;;8.90;84.50;;;;;;4998754;28;20442;-75
2023/01/13 12:01:24;;;;;;;1.50;0.63;;;9.00;84.90;;;;;;4998094;28;20433;-75
2023/01/13 12:04:02;;;;;;;2.73;1.00;;;9.10;84.00;;;;;;4998057;28;20492;-76
2023/01/13 12:06:36;;;;;;;2.23;0.77;;;9.20;83.50;;;;;;4998129;28;20476;-76
2023/01/13 12:09:21;;;;;;;1.80;0.70;;;9.40;83.00;;;;;;4998001;28;20436;-75
2023/01/13 12:15:03;;;;;;;1.40;0.60;;;9.50;81.50;;;;;;4997301;28;20492;-74
2023/01/13 12:17:38;;;;;;;1.60;0.80;;;9.50;81.20;;;;;;4997440;28;20428;-75
2023/01/13 12:20:21;;;;;;;1.83;0.90;;;9.70;81.60;;;;;;4997813;28;20440;-74
2023/01/13 12:22:52;;;;;;;1.70;0.80;;;10.40;81.20;;;;;;4997622;28;20438;-75
2023/01/13 12:25:25;;;;;;;2.40;0.77;;;10.70;78.50;;;;;;4997264;28;21012;-74
2023/01/13 12:27:59;;;;;;;1.43;0.67;;;11.30;78.30;;;;;;4997522;28;20433;-75
2023/01/13 12:30:29;;;;;;;1.70;0.90;;;12.00;75.10;;;;;;4997231;28;20433;-74
2023/01/13 12:33:03;;;;;;;1.70;0.70;;;14.50;70.50;;;;;;4998400;28;20453;-74
2023/01/13 12:35:38;;;;;;;1.80;0.70;;;18.00;62.40;;;;;;4997095;28;20488;-75
2023/01/13 12:38:11;;;;;;;1.80;0.90;;;20.30;54.20;;;;;;4997054;28;20433;-74
2023/01/13 12:40:47;;;;;;;1.60;0.80;;;22.10;50.80;;;;;;4997209;28;20452;-74
2023/01/13 12:46:38;;;;;;;2.23;0.80;;;23.50;46.20;;;;;;4996631;28;20441;-74
2023/01/13 12:49:19;;;;;;;1.80;1.00;;;21.30;49.70;;;;;;4996825;28;20460;-73
2023/01/13 12:52:12;;;;;;;2.83;1.17;;;18.50;51.40;;;;;;4996552;28;20437;-74
2023/01/13 12:55:15;;;;;;;3.23;1.20;;;17.30;54.30;;;;;;4996378;28;21008;-74
2023/01/13 12:58:02;;;;;;;3.40;1.10;;;17.80;53.00;;;;;;4996802;28;20449;-75
2023/01/13 13:00:36;;;;;;;2.10;1.17;;;19.80;49.60;;;;;;4997317;28;20616;-75
2023/01/13 13:03:31;;;;;;;3.80;1.47;;;21.50;45.20;;;;;;4995821;28;20866;-75
2023/01/13 13:06:07;;;;;;;2.53;1.30;;;22.00;44.20;;;;;;4996629;28;20472;-74
2023/01/13 13:08:47;;;;;;;2.80;1.43;;;22.40;43.00;;;;;;4996850;28;20452;-75
2023/01/13 13:14:10;;;;;;;2.93;0.90;;;24.90;40.40;;;;;;4996360;28;20977;-74
2023/01/13 13:16:49;;;;;;;2.43;1.00;;;25.80;38.60;;;;;;4996340;28;20485;-75
2023/01/13 13:19:42;;;;;;;2.23;1.10;;;26.40;38.70;;;;;;4996689;28;20559;-74
2023/01/13 13:22:34;;;;;;;2.83;1.30;;;27.80;35.40;;;;;;4996399;28;20493;-75
2023/01/13 13:25:25;;;;;;;3.03;1.20;;;27.90;35.40;;;;;;4996688;28;20438;-75
2023/01/13 13:28:20;;;;;;;3.10;1.40;;;27.10;36.80;;;;;;4994367;28;20502;-75
2023/01/13 13:30:56;;;;;;;3.30;1.20;;;27.70;34.90;;;;;;4996869;28;20445;-76
2023/01/13 13:33:41;;;;;;;2.70;1.27;;;26.30;36.60;;;;;;4996627;28;20437;-74
2023/01/13 13:36:21;;;;;;;1.97;1.23;;;26.70;36.10;;;;;;4995974;28;20861;-74
2023/01/13 13:47:36;;;;;;;1.70;1.00;;;25.70;37.30;;;;;;4995656;28;20417;-75
2023/01/13 13:50:07;;;;;;;1.77;1.00;;;25.70;37.70;;;;;;4996210;28;20453;-74
2023/01/13 13:52:39;;;;;;;3.77;1.40;;;25.80;36.80;;;;;;4995517;28;20782;-74
2023/01/13 13:55:13;;;;;;;2.83;1.20;;;25.50;38.70;;;;;;4995266;28;20912;-75
2023/01/13 13:57:41;;;;;;;2.20;1.40;;;25.90;37.50;;;;;;4995540;28;20441;-74
2023/01/13 14:00:21;;;;;;;2.40;1.20;;;25.10;38.60;;;;;;4995405;28;20455;-74
2023/01/13 14:02:51;;;;;;;2.30;1.10;;;23.40;40.70;;;;;;4995318;28;20978;-75
2023/01/13 14:05:20;;;;;;;2.87;1.40;;;20.40;45.20;;;;;;4994821;28;20877;-73
2023/01/13 14:07:48;;;;;;;2.23;1.00;;;18.00;50.30;;;;;;4995219;28;20823;-74
2023/01/13 14:10:20;;;;;;;2.77;1.07;;;16.30;54.90;;;;;;4995301;28;20505;-74
2023/01/13 14:12:46;;;;;;;2.57;1.00;;;15.20;57.10;;;;;;4995183;28;20430;-74
2023/01/13 14:15:31;;;;;;;2.53;1.13;;;13.90;60.50;;;;;;4994726;28;20576;-75
2023/01/13 14:17:59;;;;;;;2.63;1.20;;;13.00;64.10;;;;;;4995330;28;20811;-75
2023/01/13 14:20:26;;;;;;;2.70;1.07;;;12.50;66.60;;;;;;4995149;28;20453;-74
2023/01/13 14:22:56;;;;;;;2.63;1.10;;;12.30;69.10;;;;;;4995096;28;20460;-74
2023/01/13 14:25:31;;;;;;;2.20;1.00;;;11.80;71.30;;;;;;4994974;28;20473;-74
2023/01/13 14:28:03;;;;;;;1.90;0.93;;;11.30;73.00;;;;;;4994892;28;20452;-74
2023/01/13 14:30:32;;;;;;;2.30;1.10;;;10.70;75.50;;;;;;4995021;28;20489;-74
2023/01/13 14:33:00;;;;;;;3.60;1.97;;;10.40;76.80;;;;;;4995271;28;20552;-72
2023/01/13 14:35:26;;;;;;;2.63;1.50;;;10.40;77.90;;;;;;4994473;28;20839;-73
2023/01/13 14:38:03;;;;;;;3.03;1.40;;;10.40;78.40;;;;;;4994194;28;20817;-72
2023/01/13 14:40:53;;;;;;;2.20;1.20;;;10.30;79.10;;;;;;4994535;28;20437;-73
2023/01/13 14:43:24;;;;;;;2.23;1.23;;;10.20;78.90;;;;;;4974948;28;20457;-73
2023/01/13 14:45:58;;;;;;;3.60;1.50;;;10.00;78.70;;;;;;4994205;28;20829;-74
2023/01/13 14:48:32;;;;;;;2.00;1.03;;;9.90;79.60;;;;;;4994398;28;20515;-74
2023/01/13 14:51:01;;;;;;;2.83;1.27;;;9.80;80.00;;;;;;4994327;28;20438;-74
2023/01/13 14:53:34;;;;;;;2.47;1.10;;;9.80;80.00;;;;;;4994374;28;20817;-74
2023/01/13 14:56:42;;;;;;;2.80;1.37;;;9.90;80.20;;;;;;4994004;28;20575;-74
2023/01/13 14:59:34;;;;;;;4.43;1.47;;;9.90;80.30;;;;;;4993973;28;20456;-74
2023/01/13 15:02:24;;;;;;;2.20;1.20;;;9.80;80.50;;;;;;4993785;28;20698;-75
2023/01/13 15:04:53;;;;;;;2.17;1.20;;;9.70;80.70;;;;;;4993526;28;20446;-75
2023/01/13 15:07:25;;;;;;;2.80;1.10;;;9.60;81.60;;;;;;4994014;28;20540;-74
2023/01/13 15:09:54;;;;;;;2.30;1.63;;;9.60;82.00;;;;;;4994135;28;20502;-72
2023/01/13 15:12:29;;;;;;;2.50;1.10;;;9.70;81.90;;;;;;4994028;28;20449;-73
2023/01/13 15:14:56;;;;;;;2.63;1.13;;;9.70;81.30;;;;;;4993829;28;20543;-73
2023/01/13 15:17:22;;;;;;;3.30;1.60;;;9.50;82.00;;;;;;4994153;28;20521;-74
2023/01/13 15:19:49;;;;;;;3.40;1.20;;;9.40;82.60;;;;;;4994098;28;20499;-73
2023/01/13 15:22:17;;;;;;;2.40;0.90;;;9.30;82.10;;;;;;4994064;28;20445;-74
2023/01/13 15:24:44;;;;;;;2.53;0.90;;;9.30;82.60;;;;;;4994327;28;20454;-74
2023/01/13 15:27:18;;;;;;;2.10;1.10;;;9.20;82.80;;;;;;4993539;28;20543;-73
2023/01/13 15:29:45;;;;;;;2.53;1.00;;;9.20;83.50;;;;;;4994162;28;20509;-73
2023/01/13 15:32:18;;;;;;;1.87;0.93;;;9.00;82.80;;;;;;4993982;28;20445;-73
2023/01/13 15:34:45;;;;;;;2.63;1.40;;;8.90;83.10;;;;;;4994057;28;20461;-72
2023/01/13 15:37:12;;;;;;;2.23;1.13;;;8.90;82.80;;;;;;4993948;28;20464;-73
2023/01/13 15:39:40;;;;;;;2.00;1.00;;;8.80;82.80;;;;;;4993650;28;20986;-73
2023/01/13 15:47:37;;;;;;;2.13;1.00;;;8.90;83.10;;;;;;4993493;28;20754;-73
2023/01/13 15:50:03;;;;;;;2.37;1.03;;;8.90;82.70;;;;;;4993616;28;20449;-73
2023/01/13 15:52:30;;;;;;;2.57;1.17;;;8.80;82.50;;;;;;4993298;28;20866;-72
2023/01/13 15:54:58;;;;;;;1.90;1.10;;;8.80;82.80;;;;;;4993418;28;20484;-73
2023/01/13 15:57:26;;;;;;;2.63;1.07;;;8.70;82.50;;;;;;4993579;28;20454;-73
2023/01/13 15:59:56;;;;;;;2.83;1.37;;;8.60;82.70;;;;;;4993582;28;20508;-74
2023/01/13 16:02:24;;;;;;;2.10;1.30;;;8.70;82.70;;;;;;4993355;28;20492;-73
2023/01/13 16:04:52;;;;;;;2.20;1.10;;;8.70;82.50;;;;;;4993236;28;20927;-74
2023/01/13 16:07:21;;;;;;;3.13;0.90;;;8.50;82.50;;;;;;4993278;28;20881;-72
2023/01/13 16:09:47;;;;;;;2.00;1.00;;;8.40;82.80;;;;;;4994114;28;20457;-73
2023/01/13 16:12:15;;;;;;;2.07;0.90;;;8.50;82.80;;;;;;4993222;28;20500;-73
2023/01/13 16:14:42;;;;;;;2.53;1.20;;;8.60;82.60;;;;;;4993336;28;20519;-74
2023/01/13 16:17:15;;;;;;;3.20;1.40;;;8.50;82.50;;;;;;4992804;28;20477;-74
2023/01/13 16:19:42;;;;;;;3.17;1.20;;;8.50;82.50;;;;;;5098150;23;20532;-66
2023/01/13 16:22:10;;;;;;;1.90;0.87;;;8.50;82.10;;;;;;4993445;28;20445;-67
2023/01/13 16:24:37;;;;;;;3.00;1.30;;;8.60;82.50;;;;;;4993271;28;20939;-67
2023/01/13 16:27:11;;;;;;;2.57;1.30;;;8.60;82.20;;;;;;4994161;28;20504;-65
2023/01/13 16:29:39;;;;;;;3.53;1.67;;;8.50;82.20;;;;;;4994786;28;21006;-67
2023/01/13 16:32:06;;;;;;;2.67;1.37;;;8.60;82.30;;;;;;4995983;28;20449;-66
2023/01/13 16:34:32;;;;;;;2.53;1.60;;;8.60;82.30;;;;;;4996451;28;20457;-68
2023/01/13 16:36:59;;;;;;;2.20;1.07;;;8.70;82.10;;;;;;4997302;28;20492;-67
2023/01/13 16:39:26;;;;;;;2.70;1.40;;;8.70;81.10;;;;;;4999464;28;20469;-67
2023/01/13 16:41:53;;;;;;;2.40;1.50;;;8.60;81.30;;;;;;4996982;28;20503;-67
2023/01/13 16:44:19;;;;;;;2.30;1.00;;;8.50;81.90;;;;;;4996890;28;20500;-65
2023/01/13 16:46:47;;;;;;;6.53;1.60;;;8.60;81.50;;;;;;4996889;28;20478;-67
2023/01/13 16:49:16;;;;;;;3.10;1.47;;;8.70;81.30;;;;;;4996775;28;20469;-67
2023/01/13 16:51:43;;;;;;;3.77;1.43;;;8.70;81.20;;;;;;4996451;28;20453;-67
2023/01/13 16:54:10;;;;;;;3.43;1.57;;;8.80;81.00;;;;;;4996759;28;20453;-67
2023/01/13 16:56:37;;;;;;;2.77;1.40;;;8.80;80.30;;;;;;4996708;28;20531;-67
2023/01/13 16:59:06;;;;;;;2.47;1.20;;;8.80;80.10;;;;;;4996428;28;20912;-67
2023/01/13 17:01:35;;;;;;;2.10;1.20;;;8.60;79.90;;;;;;4997374;28;20500;-68
2023/01/13 17:04:04;;;;;;;2.43;1.27;;;8.60;80.30;;;;;;4998208;28;20544;-67
2023/01/13 17:06:35;;;;;;;4.53;2.17;;;8.60;80.40;;;;;;4997355;28;20465;-68
2023/01/13 17:09:03;;;;;;;6.27;1.57;;;8.50;80.40;;;;;;4997144;28;20477;-68
2023/01/13 17:11:30;;;;;;;1.83;1.23;;;8.40;80.60;;;;;;4996873;28;20783;-66
2023/01/13 17:13:57;;;;;;;3.00;2.67;;;8.40;80.70;;;;;;4997002;28;20453;-67
2023/01/13 17:16:25;;;;;;;3.67;1.90;;;8.40;79.90;;;;;;4996484;28;20492;-68
2023/01/13 17:18:53;;;;;;;2.77;1.30;;;8.30;80.40;;;;;;4998747;28;20536;-67
2023/01/13 17:21:21;;;;;;;3.50;1.40;;;8.30;80.10;;;;;;4999111;28;20442;-67
2023/01/13 17:23:47;;;;;;;1.97;1.13;;;8.20;80.80;;;;;;4998826;28;20476;-66
2023/01/13 17:26:27;;;;;;;2.40;1.40;;;8.20;81.00;;;;;;4998282;28;20441;-66
2023/01/13 17:28:55;;;;;;;3.13;1.77;;;8.10;81.30;;;;;;4998574;28;20461;-66
2023/01/13 17:31:21;;;;;;;4.10;1.30;;;8.10;81.90;;;;;;4998185;28;20453;-66
2023/01/13 17:33:48;;;;;;;3.07;1.17;;;8.20;81.30;;;;;;4997346;28;20449;-66
2023/01/13 17:36:15;;;;;;;1.93;1.03;;;8.00;81.20;;;;;;4996965;28;20484;-66
2023/01/13 17:38:43;;;;;;;2.13;1.30;;;8.10;81.80;;;;;;4997159;28;20939;-65
2023/01/13 17:41:09;;;;;;;2.77;1.43;;;8.10;81.50;;;;;;4997029;28;20453;-65
2023/01/13 17:43:36;;;;;;;2.60;1.37;;;8.30;81.40;;;;;;4998150;28;20449;-72
2023/01/13 17:46:07;;;;;;;3.03;1.43;;;8.40;81.40;;;;;;4997811;28;20477;-67
2023/01/13 17:48:34;;;;;;;2.43;1.33;;;8.40;80.90;;;;;;4997483;28;20438;-68
2023/01/13 17:51:02;;;;;;;2.70;1.27;;;8.50;80.60;;;;;;4996813;28;20465;-67
2023/01/13 17:53:29;;;;;;;3.20;1.40;;;8.50;80.90;;;;;;4996952;28;20898;-68
2023/01/13 17:55:57;;;;;;;3.50;1.60;;;8.50;80.10;;;;;;4996678;28;20485;-68
2023/01/13 17:58:24;;;;;;;2.23;1.20;;;8.40;80.70;;;;;;4996302;28;20433;-66
2023/01/13 18:00:50;;;;;;;2.60;1.20;;;8.40;80.80;;;;;;4996687;28;20474;-67
2023/01/13 18:03:18;;;;;;;2.00;1.20;;;8.40;81.50;;;;;;4996992;28;20462;-67